createdAt,value
2023-04-11T00:00:00.522Z,56.97
2023-04-11T00:01:57.671Z,59.01
2023-04-11T00:05:11.757Z,61.86
2023-04-11T00:06:53.213Z,63.36
2023-04-11T00:08:32.378Z,63.71
2023-04-11T00:10:15.877Z,61.01
2023-04-11T00:11:48.154Z,57.91
2023-04-11T00:13:31.803Z,56.09
2023-04-11T00:15:04.317Z,57.27
2023-04-11T00:16:58.202Z,58.91
2023-04-11T00:18:42.230Z,60.76
2023-04-11T00:20:25.746Z,62.24
2023-04-11T00:22:18.198Z,63.93
2023-04-11T00:23:52.526Z,62.46
2023-04-11T00:25:34.966Z,59.95
2023-04-11T00:27:08.850Z,56.88
2023-04-11T00:28:38.691Z,56.71
2023-04-11T00:30:21.825Z,58.02
2023-04-11T00:31:56.345Z,59.91
2023-04-11T00:33:18.576Z,61.28
2023-04-11T00:34:50.910Z,62.66
2023-04-11T00:36:11.112Z,64.25
2023-04-11T00:37:55.365Z,63.28
2023-04-11T00:39:35.235Z,60.24
2023-04-11T00:41:09.415Z,57.39
2023-04-11T00:42:41.661Z,56.44
2023-04-11T00:44:08.733Z,57.38
2023-04-11T00:45:41.232Z,59.17
2023-04-11T00:47:24.895Z,60.65
2023-04-11T00:48:48.232Z,62.00
2023-04-11T00:50:16.359Z,63.86
2023-04-11T00:51:48.811Z,64.15
2023-04-11T00:53:32.334Z,61.40
2023-04-11T00:55:15.950Z,58.13
2023-04-11T00:57:02.337Z,56.40
2023-04-11T00:58:42.012Z,57.43
2023-04-11T01:00:14.952Z,59.01
2023-04-11T01:02:00.964Z,60.63
2023-04-11T01:03:31.069Z,62.08
2023-04-11T01:05:02.983Z,63.95
2023-04-11T01:06:50.152Z,63.32
2023-04-11T01:08:33.645Z,60.27
2023-04-11T01:10:08.196Z,57.10
2023-04-11T01:11:43.350Z,56.22
2023-04-11T01:13:05.937Z,57.32
2023-04-11T01:14:40.724Z,58.88
2023-04-11T01:16:15.731Z,60.47
2023-04-11T01:17:48.257Z,62.05
2023-04-11T01:19:20.925Z,63.76
2023-04-11T01:21:00.645Z,63.43
2023-04-11T01:22:40.786Z,60.74
2023-04-11T01:24:12.326Z,57.52
2023-04-11T01:25:43.489Z,56.35
2023-04-11T01:27:04.682Z,57.38
2023-04-11T01:28:27.675Z,58.84
2023-04-11T01:29:55.738Z,60.31
2023-04-11T01:31:37.483Z,61.76
2023-04-11T01:33:11.403Z,63.28
2023-04-11T01:34:43.863Z,64.02
2023-04-11T01:36:35.897Z,61.20
2023-04-11T01:38:16.335Z,57.67
2023-04-11T01:40:04.199Z,56.45
2023-04-11T01:41:36.884Z,57.70
2023-04-11T01:43:18.218Z,59.13
2023-04-11T01:44:50.625Z,60.60
2023-04-11T01:46:19.796Z,61.86
2023-04-11T01:47:59.296Z,63.52
2023-04-11T01:49:43.306Z,63.32
2023-04-11T01:51:22.234Z,60.24
2023-04-11T01:53:01.308Z,56.96
2023-04-11T01:54:29.558Z,56.22
2023-04-11T01:56:12.667Z,57.38
2023-04-11T01:57:47.278Z,58.84
2023-04-11T01:59:27.910Z,60.61
2023-04-11T02:00:48.416Z,61.81
2023-04-11T02:02:31.812Z,63.31
2023-04-11T02:04:15.671Z,63.93
2023-04-11T02:06:03.052Z,60.97
2023-04-11T02:07:55.084Z,57.28
2023-04-11T02:09:29.140Z,56.14
2023-04-11T02:10:49.926Z,57.35
2023-04-11T02:12:21.588Z,58.92
2023-04-11T02:14:04.989Z,60.70
2023-04-11T02:15:39.674Z,62.51
2023-04-11T02:17:15.887Z,64.28
2023-04-11T02:18:48.184Z,62.98
2023-04-11T02:20:11.021Z,60.33
2023-04-11T02:21:45.744Z,57.38
2023-04-11T02:23:18.322Z,55.94
2023-04-11T02:25:01.140Z,56.87
2023-04-11T02:26:37.700Z,58.70
2023-04-11T02:28:22.487Z,60.31
2023-04-11T02:30:06.045Z,61.84
2023-04-11T02:31:38.738Z,63.37
2023-04-11T02:33:18.017Z,64.21
2023-04-11T02:35:07.320Z,61.99
2023-04-11T02:36:41.643Z,58.64
2023-04-11T02:38:13.294Z,56.32
2023-04-11T02:39:43.219Z,56.84
2023-04-11T02:41:17.455Z,58.23
2023-04-11T02:43:09.790Z,60.23
2023-04-11T02:44:55.220Z,62.34
2023-04-11T02:46:34.963Z,64.54
2023-04-11T02:48:08.019Z,63.43
2023-04-11T02:49:43.207Z,60.68
2023-04-11T02:51:28.039Z,57.27
2023-04-11T02:53:11.786Z,56.26
2023-04-11T02:54:44.356Z,57.84
2023-04-11T02:56:29.849Z,59.90
2023-04-11T02:57:57.841Z,61.72
2023-04-11T02:59:22.626Z,63.53
2023-04-11T03:00:54.439Z,64.49
2023-04-11T03:02:28.863Z,62.56
2023-04-11T03:04:17.338Z,59.39
2023-04-11T03:06:04.440Z,56.69
2023-04-11T03:07:50.663Z,57.30
2023-04-11T03:09:11.126Z,58.91
2023-04-11T03:10:55.060Z,60.53
2023-04-11T03:12:27.948Z,62.22
2023-04-11T03:14:04.692Z,64.53
2023-04-11T03:15:37.217Z,63.47
2023-04-11T03:17:23.149Z,60.64
2023-04-11T03:19:08.743Z,57.27
2023-04-11T03:20:40.656Z,56.45
2023-04-11T03:22:23.850Z,57.80
2023-04-11T03:24:15.766Z,59.67
2023-04-11T03:25:42.058Z,61.32
2023-04-11T03:27:13.546Z,63.16
2023-04-11T03:28:58.994Z,64.33
2023-04-11T03:30:39.864Z,62.34
2023-04-11T03:32:23.270Z,59.24
2023-04-11T03:34:11.202Z,56.79
2023-04-11T03:35:54.936Z,57.47
2023-04-11T03:37:26.822Z,59.37
2023-04-11T03:39:06.576Z,61.08
2023-04-11T03:40:41.068Z,63.21
2023-04-11T03:42:40.057Z,64.51
2023-04-11T03:44:13.262Z,62.21
2023-04-11T03:45:45.345Z,59.58
2023-04-11T03:47:22.020Z,56.85
2023-04-11T03:49:11.279Z,57.17
2023-04-11T03:50:45.837Z,59.01
2023-04-11T03:52:22.096Z,60.50
2023-04-11T03:54:06.579Z,62.14
2023-04-11T03:55:53.798Z,64.50
2023-04-11T03:57:18.038Z,63.44
2023-04-11T03:59:01.752Z,60.66
2023-04-11T04:00:40.679Z,57.27
2023-04-11T04:02:15.653Z,56.45
2023-04-11T04:04:03.628Z,57.76
2023-04-11T04:05:56.463Z,59.83
2023-04-11T04:07:40.238Z,61.92
2023-04-11T04:09:28.185Z,64.40
2023-04-11T04:11:11.999Z,63.98
2023-04-11T04:12:46.637Z,61.02
2023-04-11T04:14:15.844Z,58.41
2023-04-11T04:16:06.804Z,56.81
2023-04-11T04:17:39.406Z,58.17
2023-04-11T04:19:31.942Z,59.97
2023-04-11T04:21:15.539Z,62.15
2023-04-11T04:23:00.619Z,64.37
2023-04-11T04:25:31.831Z,62.46
2023-04-11T04:27:04.736Z,59.66
2023-04-11T04:28:55.847Z,56.97
2023-04-11T04:30:40.074Z,57.62
2023-04-11T04:32:16.209Z,59.53
2023-04-11T04:33:53.209Z,61.39
2023-04-11T04:35:40.352Z,63.56
2023-04-11T04:37:21.255Z,64.57
2023-04-11T04:38:55.743Z,62.22
2023-04-11T04:40:42.731Z,59.69
2023-04-11T04:42:35.100Z,57.12
2023-04-11T04:44:20.671Z,57.59
2023-04-11T04:45:53.862Z,59.54
2023-04-11T04:47:41.643Z,61.56
2023-04-11T04:49:13.243Z,63.98
2023-04-11T04:50:45.343Z,64.42
2023-04-11T04:52:28.900Z,62.28
2023-04-11T04:53:57.082Z,59.46
2023-04-11T04:55:32.215Z,57.20
2023-04-11T04:57:09.950Z,57.28
2023-04-11T04:58:49.952Z,58.99
2023-04-11T05:00:23.173Z,60.97
2023-04-11T05:02:07.310Z,62.64
2023-04-11T05:03:39.690Z,64.52
2023-04-11T05:05:20.848Z,63.13
2023-04-11T05:07:11.255Z,60.33
2023-04-11T05:08:44.102Z,57.21
2023-04-11T05:10:17.054Z,56.89
2023-04-11T05:11:45.196Z,58.46
2023-04-11T05:13:10.784Z,59.95
2023-04-11T05:14:54.695Z,61.62
2023-04-11T05:16:26.625Z,63.94
2023-04-11T05:17:52.759Z,64.30
2023-04-11T05:19:27.063Z,62.27
2023-04-11T05:20:47.876Z,59.61
2023-04-11T05:22:26.602Z,56.94
2023-04-11T05:24:02.610Z,56.88
2023-04-11T05:25:44.013Z,58.51
2023-04-11T05:27:18.964Z,60.43
2023-04-11T05:28:51.784Z,61.91
2023-04-11T05:30:20.991Z,63.12
2023-04-11T05:31:44.164Z,64.35
2023-04-11T05:33:18.295Z,62.35
2023-04-11T05:35:02.475Z,59.55
2023-04-11T05:36:50.064Z,56.77
2023-04-11T05:38:13.873Z,56.99
2023-04-11T05:40:00.165Z,58.36
2023-04-11T05:41:43.924Z,60.14
2023-04-11T05:43:26.962Z,61.68
2023-04-11T05:45:10.536Z,63.25
2023-04-11T05:46:43.188Z,64.12
2023-04-11T05:48:16.053Z,61.87
2023-04-11T05:49:48.504Z,59.30
2023-04-11T05:51:15.563Z,56.88
2023-04-11T05:52:46.633Z,56.80
2023-04-11T05:54:29.946Z,57.96
2023-04-11T05:56:05.313Z,59.35
2023-04-11T05:57:37.998Z,61.35
2023-04-11T05:59:05.470Z,62.89
2023-04-11T06:00:33.465Z,63.92
2023-04-11T06:02:07.910Z,62.68
2023-04-11T06:03:47.960Z,59.54
2023-04-11T06:05:21.733Z,56.32
2023-04-11T06:06:56.361Z,56.14
2023-04-11T06:08:39.722Z,57.54
2023-04-11T06:10:02.492Z,59.01
2023-04-11T06:11:30.214Z,60.30
2023-04-11T06:13:13.427Z,61.37
2023-04-11T06:14:48.284Z,63.08
2023-04-11T06:16:32.921Z,63.47
2023-04-11T06:18:16.557Z,61.33
2023-04-11T06:19:41.938Z,58.52
2023-04-11T06:21:21.770Z,56.33
2023-04-11T06:22:56.393Z,56.55
2023-04-11T06:24:30.965Z,57.86
2023-04-11T06:26:06.663Z,59.22
2023-04-11T06:27:30.504Z,60.72
2023-04-11T06:29:04.758Z,61.77
2023-04-11T06:30:32.225Z,62.70
2023-04-11T06:32:04.406Z,63.91
2023-04-11T06:33:36.432Z,61.51
2023-04-11T06:35:19.600Z,58.38
2023-04-11T06:36:59.163Z,55.87
2023-04-11T06:38:40.386Z,56.01
2023-04-11T06:40:19.822Z,57.37
2023-04-11T06:41:52.480Z,58.63
2023-04-11T06:43:41.576Z,60.13
2023-04-11T06:45:13.319Z,61.43
2023-04-11T06:46:48.257Z,62.98
2023-04-11T06:48:20.305Z,63.50
2023-04-11T06:50:05.380Z,61.10
2023-04-11T06:51:49.219Z,57.51
2023-04-11T06:53:23.420Z,55.87
2023-04-11T06:55:06.854Z,56.45
2023-04-11T06:56:39.008Z,57.53
2023-04-11T06:58:12.962Z,58.60
2023-04-11T06:59:56.923Z,59.69
2023-04-11T07:01:39.842Z,60.89
2023-04-11T07:03:07.912Z,61.69
2023-04-11T07:04:52.115Z,62.27
2023-04-11T07:06:15.292Z,63.00
2023-04-11T07:08:03.269Z,63.25
2023-04-11T07:09:47.185Z,60.39
2023-04-11T07:11:14.449Z,56.56
2023-04-11T07:12:37.344Z,55.63
2023-04-11T07:14:16.540Z,56.42
2023-04-11T07:15:48.593Z,57.29
2023-04-11T07:17:18.389Z,58.27
2023-04-11T07:19:02.301Z,59.32
2023-04-11T07:20:46.171Z,60.37
2023-04-11T07:22:17.800Z,61.06
2023-04-11T07:24:03.202Z,62.03
2023-04-11T07:25:36.241Z,63.37
2023-04-11T07:26:57.921Z,62.96
2023-04-11T07:28:31.673Z,60.33
2023-04-11T07:30:08.375Z,57.00
2023-04-11T07:31:52.447Z,55.14
2023-04-11T07:33:27.261Z,55.53
2023-04-11T07:35:10.868Z,56.39
2023-04-11T07:36:33.597Z,57.23
2023-04-11T07:38:05.577Z,58.51
2023-04-11T07:39:39.145Z,59.21
2023-04-11T07:41:22.388Z,60.07
2023-04-11T07:43:03.121Z,60.65
2023-04-11T07:44:54.803Z,61.05
2023-04-11T07:46:19.529Z,61.68
2023-04-11T07:48:03.129Z,62.13
2023-04-11T07:49:47.067Z,62.57
2023-04-11T07:51:21.069Z,63.23
2023-04-11T07:53:00.653Z,60.94
2023-04-11T07:54:44.597Z,56.91
2023-04-11T07:56:18.529Z,54.69
2023-04-11T07:58:12.212Z,54.58
2023-04-11T07:59:37.795Z,55.50
2023-04-11T08:01:16.420Z,56.42
2023-04-11T08:03:00.267Z,57.76
2023-04-11T08:04:46.914Z,58.81
2023-04-11T08:06:21.455Z,59.80
2023-04-11T08:07:42.016Z,60.09
2023-04-11T08:09:13.991Z,60.15
2023-04-11T08:11:02.212Z,60.32
2023-04-11T08:12:34.856Z,60.87
2023-04-11T08:14:18.893Z,61.20
2023-04-11T08:15:58.337Z,61.69
2023-04-11T08:17:42.216Z,62.07
2023-04-11T08:19:11.730Z,61.68
2023-04-11T08:21:04.222Z,61.45
2023-04-11T08:22:50.297Z,61.74
2023-04-11T08:24:33.642Z,61.79
2023-04-11T08:26:06.266Z,61.41
2023-04-11T08:27:50.252Z,60.92
2023-04-11T08:29:33.698Z,60.76
2023-04-11T08:31:18.112Z,60.50
2023-04-11T08:32:41.499Z,60.64
2023-04-11T08:34:06.681Z,60.77
2023-04-11T08:35:30.124Z,61.09
2023-04-11T08:37:13.427Z,60.67
2023-04-11T08:38:58.801Z,60.65
2023-04-11T08:40:37.985Z,61.47
2023-04-11T08:42:16.581Z,61.02
2023-04-11T08:43:40.270Z,60.91
2023-04-11T08:45:26.809Z,60.49
2023-04-11T08:47:09.937Z,60.04
2023-04-11T08:48:53.948Z,60.75
2023-04-11T08:50:39.843Z,60.95
2023-04-11T08:52:09.843Z,61.09
2023-04-11T08:53:42.376Z,61.74
2023-04-11T08:55:13.599Z,61.24
2023-04-11T08:56:57.340Z,61.20
2023-04-11T08:58:25.108Z,60.62
2023-04-11T08:59:59.510Z,60.39
2023-04-11T09:01:27.287Z,60.38
2023-04-11T09:03:11.690Z,60.65
2023-04-11T09:04:55.796Z,60.35
2023-04-11T09:06:30.014Z,60.55
2023-04-11T09:08:13.206Z,61.19
2023-04-11T09:09:49.122Z,60.63
2023-04-11T09:11:23.021Z,59.96
2023-04-11T09:12:55.110Z,59.73
2023-04-11T09:14:27.324Z,59.92
2023-04-11T09:15:52.579Z,59.63
2023-04-11T09:17:24.093Z,59.18
2023-04-11T09:18:56.357Z,59.21
2023-04-11T09:20:30.478Z,59.05
2023-04-11T09:22:15.760Z,58.77
2023-04-11T09:24:00.679Z,58.69
2023-04-11T09:25:34.685Z,58.29
2023-04-11T09:27:07.190Z,58.07
2023-04-11T09:28:54.099Z,58.89
2023-04-11T09:30:33.485Z,58.64
2023-04-11T09:32:07.658Z,58.58
2023-04-11T09:34:00.123Z,58.31
2023-04-11T09:35:43.905Z,58.01
2023-04-11T09:37:18.553Z,57.70
2023-04-11T09:38:46.462Z,58.04
2023-04-11T09:40:18.412Z,57.73
2023-04-11T09:42:02.325Z,58.52
2023-04-11T09:43:24.904Z,58.76
2023-04-11T09:44:59.107Z,58.59
2023-04-11T09:46:51.757Z,58.13
2023-04-11T09:48:29.330Z,57.55
2023-04-11T09:50:11.260Z,56.86
2023-04-11T09:51:55.105Z,56.68
2023-04-11T09:53:27.097Z,56.43
2023-04-11T09:55:10.927Z,56.60
2023-04-11T09:56:50.990Z,56.65
2023-04-11T09:58:31.273Z,56.36
2023-04-11T10:00:23.481Z,56.65
2023-04-11T10:01:58.027Z,56.94
2023-04-11T10:03:31.368Z,56.43
2023-04-11T10:05:15.098Z,56.77
2023-04-11T10:06:49.819Z,55.87
2023-04-11T10:08:21.664Z,55.04
2023-04-11T10:10:05.324Z,54.73
2023-04-11T10:11:39.590Z,55.87
2023-04-11T10:12:59.488Z,56.08
2023-04-11T10:14:19.428Z,56.18
2023-04-11T10:16:02.999Z,55.31
2023-04-11T10:17:45.319Z,54.53
2023-04-11T10:19:16.856Z,55.22
2023-04-11T10:20:39.868Z,54.24
2023-04-11T10:22:11.898Z,54.20
2023-04-11T10:23:44.303Z,54.52
2023-04-11T10:25:06.982Z,54.54
2023-04-11T10:26:26.745Z,54.20
2023-04-11T10:27:59.686Z,53.82
2023-04-11T10:29:33.789Z,53.36
2023-04-11T10:31:08.484Z,53.47
2023-04-11T10:32:57.715Z,54.25
2023-04-11T10:34:18.012Z,54.42
2023-04-11T10:36:02.335Z,53.84
2023-04-11T10:37:34.687Z,53.21
2023-04-11T10:39:18.084Z,53.28
2023-04-11T10:40:57.748Z,52.42
2023-04-11T10:42:49.930Z,52.45
2023-04-11T10:44:23.893Z,52.09
2023-04-11T10:45:59.266Z,52.10
2023-04-11T10:47:33.606Z,52.19
2023-04-11T10:49:07.510Z,52.25
2023-04-11T10:50:47.357Z,52.38
2023-04-11T10:52:20.773Z,52.96
2023-04-11T10:53:55.672Z,52.13
2023-04-11T10:55:35.218Z,52.47
2023-04-11T10:57:18.792Z,52.41
2023-04-11T10:59:01.922Z,52.54
2023-04-11T11:00:35.150Z,53.66
2023-04-11T11:02:10.377Z,52.57
2023-04-11T11:03:42.882Z,53.03
2023-04-11T11:05:26.036Z,52.17
2023-04-11T11:06:58.587Z,51.59
2023-04-11T11:08:30.495Z,51.29
2023-04-11T11:09:52.792Z,50.87
2023-04-11T11:11:34.722Z,50.19
2023-04-11T11:13:14.208Z,49.89
2023-04-11T11:14:44.456Z,49.11
2023-04-11T11:16:04.734Z,49.39
2023-04-11T11:17:48.612Z,49.15
2023-04-11T11:19:22.880Z,48.77
2023-04-11T11:20:55.475Z,49.10
2023-04-11T11:22:17.891Z,49.12
2023-04-11T11:23:52.748Z,49.27
2023-04-11T11:25:24.532Z,49.54
2023-04-11T11:26:59.205Z,49.09
2023-04-11T11:30:13.326Z,47.65
2023-04-11T11:31:38.473Z,46.66
2023-04-11T11:33:17.393Z,46.64
2023-04-11T11:35:02.263Z,46.10
2023-04-11T11:36:42.442Z,46.65
2023-04-11T11:38:30.269Z,46.41
2023-04-11T11:40:05.159Z,46.19
2023-04-11T11:41:39.783Z,45.14
2023-04-11T11:43:18.637Z,44.37
2023-04-11T11:45:12.256Z,44.97
2023-04-11T11:47:05.313Z,45.29
2023-04-11T11:48:34.941Z,45.02
2023-04-11T11:50:07.722Z,45.14
2023-04-11T11:51:30.077Z,45.06
2023-04-11T11:52:53.528Z,44.68
2023-04-11T11:54:18.060Z,45.54
2023-04-11T11:55:54.459Z,45.69
2023-04-11T11:57:22.580Z,45.22
2023-04-11T11:58:58.904Z,44.59
2023-04-11T12:00:42.667Z,44.66
2023-04-11T12:02:14.563Z,43.61
2023-04-11T12:03:50.577Z,44.07
2023-04-11T12:05:34.734Z,43.81
2023-04-11T12:06:58.065Z,43.67
2023-04-11T12:08:42.635Z,42.77
2023-04-11T12:10:14.443Z,43.21
2023-04-11T12:11:47.248Z,43.43
2023-04-11T12:13:17.005Z,43.20
2023-04-11T12:14:57.654Z,42.46
2023-04-11T12:16:20.008Z,42.01
2023-04-11T12:17:52.201Z,41.80
2023-04-11T12:19:12.550Z,42.56
2023-04-11T12:20:46.906Z,42.47
2023-04-11T12:22:35.236Z,42.64
2023-04-11T12:24:07.154Z,42.87
2023-04-11T12:25:46.530Z,42.68
2023-04-11T12:27:18.863Z,43.53
2023-04-11T12:29:06.951Z,43.79
2023-04-11T12:30:46.623Z,42.91
2023-04-11T12:32:38.561Z,41.45
2023-04-11T12:34:08.784Z,41.52
2023-04-11T12:36:01.355Z,39.99
2023-04-11T12:37:33.196Z,40.39
2023-04-11T12:39:03.162Z,40.47
2023-04-11T12:40:44.165Z,39.14
2023-04-11T12:42:18.608Z,39.45
2023-04-11T12:44:00.807Z,40.05
2023-04-11T12:45:45.073Z,39.13
2023-04-11T12:47:16.995Z,38.38
2023-04-11T12:48:59.284Z,37.97
2023-04-11T12:50:32.171Z,37.79
2023-04-11T12:52:15.726Z,38.08
2023-04-11T12:53:55.318Z,37.96
2023-04-11T12:55:30.397Z,38.71
2023-04-11T12:57:06.820Z,38.64
2023-04-11T12:58:39.845Z,38.79
2023-04-11T13:00:03.873Z,38.38
2023-04-11T13:01:36.155Z,37.33
2023-04-11T13:03:08.413Z,36.97
2023-04-11T13:04:52.805Z,36.01
2023-04-11T13:06:37.148Z,36.90
2023-04-11T13:07:59.526Z,36.24
2023-04-11T13:09:30.043Z,35.91
2023-04-11T13:11:05.661Z,35.62
2023-04-11T13:12:52.579Z,35.65
2023-04-11T13:14:35.909Z,36.06
2023-04-11T13:16:19.466Z,36.30
2023-04-11T13:17:51.613Z,36.53
2023-04-11T13:19:35.328Z,36.75
2023-04-11T13:21:07.523Z,37.31
2023-04-11T13:22:27.653Z,36.47
2023-04-11T13:23:59.623Z,36.99
2023-04-11T13:25:43.280Z,37.11
2023-04-11T13:27:15.457Z,36.65
2023-04-11T13:28:45.681Z,36.32
2023-04-11T13:30:09.070Z,35.80
2023-04-11T13:31:53.126Z,36.12
2023-04-11T13:33:25.232Z,37.31
2023-04-11T13:35:06.739Z,37.33
2023-04-11T13:36:41.970Z,37.46
2023-04-11T13:38:25.239Z,36.61
2023-04-11T13:39:56.105Z,37.22
2023-04-11T13:41:37.273Z,37.15
2023-04-11T13:43:21.663Z,36.23
2023-04-11T13:44:50.097Z,36.28
2023-04-11T13:46:17.962Z,35.46
2023-04-11T13:47:52.779Z,35.72
2023-04-11T13:49:36.518Z,35.84
2023-04-11T13:50:59.878Z,35.64
2023-04-11T13:52:33.009Z,35.85
2023-04-11T13:54:06.658Z,36.21
2023-04-11T13:55:53.635Z,36.26
2023-04-11T13:57:27.792Z,36.23
2023-04-11T13:58:48.711Z,36.00
2023-04-11T14:00:21.716Z,36.10
2023-04-11T14:01:42.840Z,36.66
2023-04-11T14:03:22.408Z,37.20
2023-04-11T14:04:54.320Z,37.86
2023-04-11T14:06:25.825Z,37.45
2023-04-11T14:07:58.450Z,37.52
2023-04-11T14:09:32.955Z,38.79
2023-04-11T14:11:05.336Z,38.94
2023-04-11T14:12:58.313Z,38.79
2023-04-11T14:14:42.160Z,39.15
2023-04-11T14:16:14.303Z,39.35
2023-04-11T14:17:49.055Z,39.16
2023-04-11T14:19:38.707Z,39.21
2023-04-11T14:21:22.723Z,39.16
2023-04-11T14:23:01.955Z,39.03
2023-04-11T14:24:34.150Z,38.75
2023-04-11T14:26:08.086Z,38.48
2023-04-11T14:27:28.692Z,38.31
2023-04-11T14:29:02.111Z,37.70
2023-04-11T14:30:45.757Z,37.21
2023-04-11T14:32:13.477Z,36.93
2023-04-11T14:33:34.001Z,37.35
2023-04-11T14:35:07.673Z,37.42
2023-04-11T14:36:35.395Z,37.81
2023-04-11T14:38:07.672Z,38.59
2023-04-11T14:39:27.710Z,38.67
2023-04-11T14:41:00.036Z,38.86
2023-04-11T14:42:32.092Z,39.29
2023-04-11T14:44:15.974Z,40.04
2023-04-11T14:46:07.290Z,40.11
2023-04-11T14:47:51.633Z,40.19
2023-04-11T14:49:23.180Z,40.76
2023-04-11T14:50:58.706Z,41.59
2023-04-11T14:52:32.860Z,41.54
2023-04-11T14:54:16.040Z,41.91
2023-04-11T14:55:36.704Z,41.76
2023-04-11T14:56:59.855Z,41.36
2023-04-11T14:58:33.495Z,41.35
2023-04-11T15:00:17.730Z,42.12
2023-04-11T15:01:57.472Z,42.45
2023-04-11T15:03:29.483Z,42.31
2023-04-11T15:04:58.034Z,42.61
2023-04-11T15:06:18.391Z,42.69
2023-04-11T15:07:44.320Z,42.70
2023-04-11T15:09:19.373Z,43.14
2023-04-11T15:10:45.008Z,43.30
2023-04-11T15:12:28.516Z,43.89
2023-04-11T15:14:02.679Z,43.60
2023-04-11T15:15:41.563Z,44.13
2023-04-11T15:17:03.917Z,44.71
2023-04-11T15:18:35.447Z,44.80
2023-04-11T15:20:19.236Z,45.13
2023-04-11T15:22:00.269Z,45.82
2023-04-11T15:23:32.420Z,45.62
2023-04-11T15:25:06.868Z,45.68
2023-04-11T15:26:40.823Z,46.03
2023-04-11T15:28:14.607Z,46.87
2023-04-11T15:29:58.654Z,46.81
2023-04-11T15:31:42.932Z,47.02
2023-04-11T15:33:27.288Z,47.29
2023-04-11T15:35:11.054Z,47.39
2023-04-11T15:36:35.781Z,47.97
2023-04-11T15:38:16.632Z,48.02
2023-04-11T15:39:49.157Z,48.26
2023-04-11T15:41:11.715Z,48.87
2023-04-11T15:42:55.658Z,48.87
2023-04-11T15:44:18.346Z,49.37
2023-04-11T15:46:03.212Z,49.33
2023-04-11T15:47:37.663Z,49.32
2023-04-11T15:49:00.482Z,49.03
2023-04-11T15:50:48.572Z,49.17
2023-04-11T15:52:16.614Z,49.54
2023-04-11T15:53:58.559Z,49.41
2023-04-11T15:55:52.305Z,49.83
2023-04-11T15:57:26.746Z,50.43
2023-04-11T15:59:11.208Z,50.40
2023-04-11T16:00:53.584Z,50.27
2023-04-11T16:02:45.796Z,50.75
2023-04-11T16:04:18.228Z,51.40
2023-04-11T16:05:58.176Z,51.24
2023-04-11T16:07:41.802Z,51.55
2023-04-11T16:09:34.264Z,51.83
2023-04-11T16:10:57.754Z,51.92
2023-04-11T16:12:18.065Z,52.22
2023-04-11T16:13:50.159Z,52.74
2023-04-11T16:15:21.808Z,52.75
2023-04-11T16:16:54.233Z,52.75
2023-04-11T16:18:40.089Z,52.85
2023-04-11T16:20:19.215Z,53.19
2023-04-11T16:21:54.483Z,53.17
2023-04-11T16:23:28.198Z,53.52
2023-04-11T16:25:00.699Z,53.28
2023-04-11T16:26:32.980Z,53.04
2023-04-11T16:28:16.584Z,54.14
2023-04-11T16:30:02.681Z,55.12
2023-04-11T16:31:46.390Z,55.87
2023-04-11T16:33:11.165Z,56.64
2023-04-11T16:34:39.385Z,57.72
2023-04-11T16:36:13.611Z,58.76
2023-04-11T16:37:41.053Z,59.68
2023-04-11T16:39:24.820Z,61.00
2023-04-11T16:41:09.952Z,61.79
2023-04-11T16:42:42.602Z,62.56
2023-04-11T16:44:17.151Z,63.97
2023-04-11T16:45:47.463Z,62.32
2023-04-11T16:47:12.879Z,60.33
2023-04-11T16:48:41.392Z,58.36
2023-04-11T16:50:25.323Z,57.37
2023-04-11T16:52:05.211Z,58.62
2023-04-11T16:53:49.661Z,61.14
2023-04-11T16:55:20.014Z,62.63
2023-04-11T16:57:02.334Z,64.90
2023-04-11T16:58:32.966Z,64.25
2023-04-11T17:00:22.583Z,61.75
2023-04-11T17:02:04.012Z,60.12
2023-04-11T17:03:39.476Z,58.66
2023-04-11T17:05:19.409Z,59.12
2023-04-11T17:06:54.061Z,60.77
2023-04-11T17:08:15.015Z,62.50
2023-04-11T17:09:48.496Z,65.24
2023-04-11T17:11:40.098Z,64.99
2023-04-11T17:13:23.911Z,62.53
2023-04-11T17:15:08.222Z,60.10
2023-04-11T17:17:01.407Z,58.12
2023-04-11T17:18:31.729Z,58.44
2023-04-11T17:19:57.195Z,60.03
2023-04-11T17:21:40.844Z,62.26
2023-04-11T17:23:29.012Z,65.45
2023-04-11T17:25:21.399Z,64.82
2023-04-11T17:29:07.261Z,59.86
2023-04-11T17:30:57.594Z,57.43
2023-04-11T17:32:35.283Z,58.14
2023-04-11T17:34:19.855Z,60.55
2023-04-11T17:36:14.439Z,64.27
2023-04-11T17:37:39.726Z,65.44
2023-04-11T17:39:18.962Z,63.79
2023-04-11T17:40:39.195Z,61.42
2023-04-11T17:42:14.332Z,59.54
2023-04-11T17:43:46.833Z,58.01
2023-04-11T17:45:33.300Z,58.65
2023-04-11T17:47:17.313Z,61.00
2023-04-11T17:48:41.335Z,63.20
2023-04-11T17:50:24.788Z,64.97
2023-04-11T17:52:09.785Z,63.06
2023-04-11T17:53:59.403Z,60.81
2023-04-11T17:57:38.369Z,57.94
2023-04-11T17:59:13.148Z,59.67
2023-04-11T18:01:01.257Z,62.11
2023-04-11T18:02:45.854Z,65.12
2023-04-11T18:04:21.120Z,64.52
2023-04-11T18:06:15.367Z,61.96
2023-04-11T18:07:49.236Z,59.91
2023-04-11T18:09:23.321Z,57.66
2023-04-11T18:11:08.714Z,58.65
2023-04-11T18:12:56.906Z,60.12
2023-04-11T18:14:40.759Z,62.32
2023-04-11T18:16:24.565Z,64.95
2023-04-11T18:18:18.361Z,64.30
2023-04-11T18:20:10.536Z,61.63
2023-04-11T18:21:50.462Z,59.49
2023-04-11T18:23:34.719Z,57.85
2023-04-11T18:25:18.332Z,58.51
2023-04-11T18:26:39.161Z,60.71
2023-04-11T18:28:11.229Z,62.72
2023-04-11T18:29:55.126Z,65.73
2023-04-11T18:31:49.403Z,65.02
2023-04-11T18:33:24.004Z,62.62
2023-04-11T18:35:04.059Z,60.65
2023-04-11T18:36:48.416Z,58.44
2023-04-11T18:38:23.355Z,57.83
2023-04-11T18:39:46.552Z,59.57
2023-04-11T18:41:08.062Z,61.51
2023-04-11T18:42:58.325Z,63.38
2023-04-11T18:44:21.313Z,65.35
2023-04-11T18:45:56.749Z,64.10
2023-04-11T18:47:28.559Z,61.96
2023-04-11T18:49:08.197Z,60.08
2023-04-11T18:50:58.987Z,57.76
2023-04-11T18:52:38.984Z,58.28
2023-04-11T18:54:22.566Z,59.98
2023-04-11T18:55:48.815Z,62.01
2023-04-11T18:57:29.547Z,64.47
2023-04-11T18:59:08.538Z,65.00
2023-04-11T19:01:14.125Z,62.36
2023-04-11T19:03:01.742Z,59.58
2023-04-11T19:04:51.899Z,57.54
2023-04-11T19:06:24.309Z,58.48
2023-04-11T19:07:56.744Z,60.18
2023-04-11T19:09:29.476Z,61.89
2023-04-11T19:10:52.801Z,64.56
2023-04-11T19:12:27.013Z,65.61
2023-04-11T19:14:01.513Z,63.60
2023-04-11T19:15:54.112Z,61.52
2023-04-11T19:17:34.085Z,59.63
2023-04-11T19:19:08.048Z,57.49
2023-04-11T19:21:01.374Z,57.86
2023-04-11T19:22:45.423Z,60.39
2023-04-11T19:24:17.456Z,62.91
2023-04-11T19:26:02.693Z,64.99
2023-04-11T19:27:46.425Z,63.77
2023-04-11T19:29:09.195Z,61.39
2023-04-11T19:30:45.999Z,59.81
2023-04-11T19:32:18.366Z,57.70
2023-04-11T19:34:02.961Z,58.00
2023-04-11T19:35:46.514Z,60.11
2023-04-11T19:37:38.570Z,62.18
2023-04-11T19:39:10.900Z,64.78
2023-04-11T19:40:54.963Z,64.43
2023-04-11T19:42:46.424Z,62.28
2023-04-11T19:44:38.446Z,59.62
2023-04-11T19:46:11.570Z,57.32
2023-04-11T19:48:05.659Z,58.41
2023-04-11T19:49:45.265Z,60.49
2023-04-11T19:51:17.790Z,62.89
2023-04-11T19:53:10.424Z,65.18
2023-04-11T19:54:49.900Z,63.79
2023-04-11T19:56:14.508Z,61.46
2023-04-11T19:58:06.660Z,58.82
2023-04-11T19:59:51.617Z,57.18
2023-04-11T20:01:25.616Z,58.90
2023-04-11T20:03:11.517Z,61.37
2023-04-11T20:06:47.585Z,65.49
2023-04-11T20:08:32.269Z,63.22
2023-04-11T20:10:12.239Z,60.85
2023-04-11T20:11:35.862Z,58.92
2023-04-11T20:12:58.806Z,57.69
2023-04-11T20:14:41.782Z,58.67
2023-04-11T20:16:04.086Z,60.85
2023-04-11T20:17:28.854Z,63.04
2023-04-11T20:18:49.655Z,65.42
2023-04-11T20:20:39.344Z,65.01
2023-04-11T20:22:24.362Z,62.20
2023-04-11T20:23:54.692Z,60.51
2023-04-11T20:25:28.984Z,58.86
2023-04-11T20:27:00.993Z,57.54
2023-04-11T20:28:23.200Z,58.49
2023-04-11T20:29:55.546Z,60.11
2023-04-11T20:31:29.961Z,62.34
2023-04-11T20:33:14.124Z,65.30
2023-04-11T20:34:46.847Z,65.07
2023-04-11T20:36:14.761Z,62.94
2023-04-11T20:37:49.674Z,60.59
2023-04-11T20:39:23.668Z,58.09
2023-04-11T20:41:17.315Z,57.44
2023-04-11T20:42:45.485Z,59.19
2023-04-11T20:44:18.348Z,61.51
2023-04-11T20:45:57.825Z,64.28
2023-04-11T20:47:29.414Z,65.67
2023-04-11T20:49:13.582Z,64.18
2023-04-11T20:51:06.334Z,61.08
2023-04-11T20:52:40.428Z,58.35
2023-04-11T20:54:03.024Z,57.50
2023-04-11T20:55:25.657Z,58.48
2023-04-11T20:56:56.475Z,60.45
2023-04-11T20:58:33.483Z,62.68